Accueil
METAR-TAF:

METAR-TAF

Aéroports :

Torrington Municipal Airport

Torrington, Wyoming, États-Unis

latitude: 42-03-53N, longitude: 104-09-10W, altitude: 1282 m

Observation

Le bulletin a été fait il y a 19 minutes, à 11:53 UTC
Vent 3 kt de est
Température 13°C
Humidité 88%
Pression 1015 hPa
Visibilité: 16.1 km
Ciel clair

METAR: KTOR 011153Z AUTO 10003KT 10SM CLR 13/11 A2997 RMK AO2 SLP109 70002 T01330106 10217 20133 53006

Heure: 06:12 (12:12 UTC)


TAF: absent

Observations et prévisions météorologiques de plus de 4000 aéroports (messages METAR et TAF).

Les stations disponibles sont représentées par des disques jaunes et rouges sur la carte.

Passer la souris dessus pour voir le nom de la station.

Cliquer dessus pour voir les observations et prévisions météorologiques.

Pour changer de carte: cliquez sur les boutons verts avec une croix noire pour zoomer, sur le bouton vert avec un tiret pour effectuer un zoom arrière, ou sur les flèches vertes pour les cartes adjacentes.


METAR-TAF: